Time;durP1;ratioP1;P1;durP2;ratioP2;P2;SDS_P1;SDS_P2;PMS_P1;PMS_P2;Temp;Humidity;BMP_temperature;BMP_pressure;BME280_temperature;BME280_humidity;BME280_pressure;Samples;Min_cycle;Max_cycle;Signal;HPM_P1;HPM_P2
2023/09/02 00:02:40;;;;;;;11.90;9.88;;;;;;;;;;10249232;28;20538;-85
2023/09/02 00:07:44;;;;;;;13.15;11.68;;;;;;;;;;10249608;28;20439;-85
2023/09/02 00:12:46;;;;;;;13.90;11.35;;;;;;;;;;10249973;29;20452;-86
2023/09/02 00:17:48;;;;;;;12.30;11.10;;;;;;;;;;10248913;28;20419;-85
2023/09/02 00:22:52;;;;;;;12.50;11.30;;;;;;;;;;10252607;28;20486;-85
2023/09/02 00:27:54;;;;;;;12.73;11.33;;;;;;;;;;10251860;28;20467;-85
2023/09/02 00:32:56;;;;;;;12.80;11.35;;;;;;;;;;10253639;28;20487;-86
2023/09/02 00:38:00;;;;;;;13.02;11.68;;;;;;;;;;10249152;28;20460;-85
2023/09/02 00:43:04;;;;;;;12.07;10.88;;;;;;;;;;10250583;28;20428;-85
2023/09/02 00:48:07;;;;;;;12.00;10.65;;;;;;;;;;10247893;28;20420;-86
2023/09/02 00:53:11;;;;;;;10.93;9.40;;;;;;;;;;10249051;28;20420;-85
2023/09/02 00:58:13;;;;;;;10.63;9.43;;;;;;;;;;10251723;28;20920;-85
2023/09/02 01:03:16;;;;;;;10.70;8.73;;;;;;;;;;10247055;28;20499;-85
2023/09/02 01:08:19;;;;;;;9.10;8.20;;;;;;;;;;10246883;28;20741;-86
2023/09/02 01:13:22;;;;;;;8.93;8.13;;;;;;;;;;10248401;28;20420;-86
2023/09/02 01:18:25;;;;;;;9.02;7.45;;;;;;;;;;10242515;28;20424;-86
2023/09/02 01:23:46;;;;;;;8.15;7.28;;;;;;;;;;10247654;29;20530;-85
2023/09/02 01:28:54;;;;;;;8.27;7.53;;;;;;;;;;10242453;28;20487;-85
2023/09/02 01:33:57;;;;;;;7.88;7.10;;;;;;;;;;10251970;28;20503;-85
2023/09/02 01:39:00;;;;;;;8.85;6.88;;;;;;;;;;10247003;28;20527;-86
2023/09/02 01:44:05;;;;;;;7.57;6.80;;;;;;;;;;10246728;28;20460;-85
2023/09/02 01:49:08;;;;;;;7.93;6.65;;;;;;;;;;10247435;28;20419;-85
2023/09/02 01:54:11;;;;;;;7.15;6.43;;;;;;;;;;10247176;28;20416;-85
2023/09/02 01:59:15;;;;;;;8.57;6.87;;;;;;;;;;10245942;28;20561;-85
2023/09/02 02:04:24;;;;;;;7.35;6.50;;;;;;;;;;10245554;28;20459;-86
2023/09/02 02:09:33;;;;;;;7.20;6.40;;;;;;;;;;10243867;28;20471;-85
2023/09/02 02:14:37;;;;;;;7.07;6.40;;;;;;;;;;10245044;28;20539;-85
2023/09/02 02:19:39;;;;;;;7.75;6.72;;;;;;;;;;10244559;28;20436;-85
2023/09/02 02:24:41;;;;;;;9.18;7.70;;;;;;;;;;10245813;28;20467;-85
2023/09/02 02:29:45;;;;;;;9.15;7.80;;;;;;;;;;10245252;28;20526;-85
2023/09/02 02:34:48;;;;;;;8.95;7.20;;;;;;;;;;10250681;28;20844;-85
2023/09/02 02:39:50;;;;;;;7.67;6.80;;;;;;;;;;10246625;28;20432;-85
2023/09/02 02:44:54;;;;;;;7.60;6.68;;;;;;;;;;10243155;28;20448;-86
2023/09/02 02:49:56;;;;;;;8.10;7.10;;;;;;;;;;10241419;28;20480;-86
2023/09/02 02:54:58;;;;;;;7.65;6.93;;;;;;;;;;10244973;28;20404;-86
2023/09/02 03:00:02;;;;;;;8.70;6.73;;;;;;;;;;10243440;28;20440;-85
2023/09/02 03:05:05;;;;;;;8.37;6.40;;;;;;;;;;10245148;29;20420;-85
2023/09/02 03:10:08;;;;;;;7.37;6.53;;;;;;;;;;10227540;28;20412;-86
2023/09/02 03:15:12;;;;;;;8.37;6.70;;;;;;;;;;10241899;28;20427;-85
2023/09/02 03:20:15;;;;;;;7.78;6.68;;;;;;;;;;10244601;28;20924;-86
2023/09/02 03:25:17;;;;;;;8.60;7.00;;;;;;;;;;10244278;28;20515;-85
2023/09/02 03:30:21;;;;;;;8.32;7.10;;;;;;;;;;10250815;28;20428;-85
2023/09/02 03:35:23;;;;;;;7.82;6.72;;;;;;;;;;10258875;29;20467;-86
2023/09/02 03:40:26;;;;;;;8.77;7.32;;;;;;;;;;10249247;29;20439;-85
2023/09/02 03:45:29;;;;;;;8.98;7.38;;;;;;;;;;10251597;28;20916;-85
2023/09/02 03:50:32;;;;;;;8.98;7.10;;;;;;;;;;10252110;29;20412;-86
2023/09/02 03:55:34;;;;;;;8.52;7.10;;;;;;;;;;10234336;28;20447;-86
2023/09/02 04:00:38;;;;;;;7.88;7.07;;;;;;;;;;10249678;28;20999;-85
2023/09/02 04:05:40;;;;;;;10.18;6.80;;;;;;;;;;10250204;28;20479;-85
2023/09/02 04:10:43;;;;;;;9.20;7.57;;;;;;;;;;10250182;28;20424;-85
2023/09/02 04:15:46;;;;;;;9.50;6.80;;;;;;;;;;10247278;28;20527;-86
2023/09/02 04:20:49;;;;;;;9.07;7.25;;;;;;;;;;10250236;28;20443;-86
2023/09/02 04:25:53;;;;;;;7.85;7.15;;;;;;;;;;10250631;28;20412;-85
2023/09/02 04:30:57;;;;;;;8.00;7.10;;;;;;;;;;10245592;28;20408;-85
2023/09/02 04:36:01;;;;;;;8.38;7.53;;;;;;;;;;10255905;29;20456;-86
2023/09/02 04:41:05;;;;;;;10.67;7.43;;;;;;;;;;10247028;28;20460;-85
2023/09/02 04:46:08;;;;;;;9.00;6.78;;;;;;;;;;10242866;28;20971;-85
2023/09/02 04:51:11;;;;;;;7.60;6.85;;;;;;;;;;10249376;28;20420;-85
2023/09/02 04:56:13;;;;;;;9.18;7.03;;;;;;;;;;10248216;29;20507;-85
2023/09/02 05:01:18;;;;;;;6.82;6.22;;;;;;;;;;10248305;28;20485;-85
2023/09/02 05:06:20;;;;;;;8.37;5.93;;;;;;;;;;10247141;28;20412;-85
2023/09/02 05:11:22;;;;;;;8.60;6.55;;;;;;;;;;10248198;28;20892;-85
2023/09/02 05:16:26;;;;;;;8.05;6.75;;;;;;;;;;10243801;28;20451;-85
2023/09/02 05:21:28;;;;;;;7.65;6.75;;;;;;;;;;10248028;28;20463;-85
2023/09/02 05:26:30;;;;;;;8.93;6.88;;;;;;;;;;10247200;28;20440;-85
2023/09/02 05:31:34;;;;;;;7.35;6.65;;;;;;;;;;10245813;28;20416;-85
2023/09/02 05:36:36;;;;;;;7.35;6.68;;;;;;;;;;10251817;28;20444;-86
2023/09/02 05:41:39;;;;;;;7.20;6.43;;;;;;;;;;10251497;28;20435;-85
2023/09/02 05:46:43;;;;;;;8.10;6.82;;;;;;;;;;10239098;28;20939;-85
2023/09/02 05:51:45;;;;;;;8.20;6.50;;;;;;;;;;10246331;28;20967;-85
2023/09/02 05:56:48;;;;;;;7.60;6.27;;;;;;;;;;10246608;28;20416;-85
2023/09/02 06:01:51;;;;;;;8.17;6.90;;;;;;;;;;10245487;28;20491;-86
2023/09/02 06:06:55;;;;;;;8.90;6.93;;;;;;;;;;10246150;28;20806;-86
2023/09/02 06:11:57;;;;;;;9.30;7.17;;;;;;;;;;10243720;28;20912;-85
2023/09/02 06:17:01;;;;;;;13.13;7.85;;;;;;;;;;10243329;28;20447;-85
2023/09/02 06:22:03;;;;;;;10.90;7.40;;;;;;;;;;10245399;28;20468;-85
2023/09/02 06:27:06;;;;;;;9.40;7.23;;;;;;;;;;10245551;28;20476;-85
2023/09/02 06:32:09;;;;;;;9.25;7.30;;;;;;;;;;10243667;28;20420;-86
2023/09/02 06:37:11;;;;;;;7.60;6.63;;;;;;;;;;10246099;28;20430;-85
2023/09/02 06:42:14;;;;;;;7.15;6.45;;;;;;;;;;10251923;28;20435;-85
2023/09/02 06:47:17;;;;;;;7.03;5.97;;;;;;;;;;10241375;28;20444;-86
2023/09/02 06:52:20;;;;;;;7.72;6.20;;;;;;;;;;10244159;28;20456;-85
2023/09/02 06:57:22;;;;;;;9.50;6.38;;;;;;;;;;10244196;28;20413;-85
2023/09/02 07:02:26;;;;;;;7.73;5.80;;;;;;;;;;10239648;28;20460;-85
2023/09/02 07:07:29;;;;;;;6.97;5.65;;;;;;;;;;10243553;29;20494;-86
2023/09/02 07:12:31;;;;;;;6.80;5.27;;;;;;;;;;10242804;28;20420;-85
2023/09/02 07:17:35;;;;;;;7.07;5.22;;;;;;;;;;10243286;28;20475;-85
2023/09/02 07:22:37;;;;;;;6.78;5.05;;;;;;;;;;10241439;28;20471;-86
2023/09/02 07:27:39;;;;;;;7.18;5.00;;;;;;;;;;10243315;28;20412;-85
2023/09/02 07:32:43;;;;;;;5.88;5.28;;;;;;;;;;10241132;28;20570;-85
2023/09/02 07:37:45;;;;;;;7.70;5.67;;;;;;;;;;10242227;28;20411;-86
2023/09/02 07:42:50;;;;;;;7.85;5.47;;;;;;;;;;10243095;28;20500;-85
2023/09/02 07:47:54;;;;;;;8.50;6.53;;;;;;;;;;10249019;28;20416;-85
2023/09/02 07:52:57;;;;;;;9.48;6.07;;;;;;;;;;10238771;28;20499;-85
2023/09/02 07:58:01;;;;;;;5.30;4.80;;;;;;;;;;10236264;28;20448;-84
2023/09/02 08:03:05;;;;;;;7.57;6.28;;;;;;;;;;10236304;28;20971;-84
2023/09/02 08:08:08;;;;;;;7.93;5.40;;;;;;;;;;10237900;28;20448;-85
2023/09/02 08:13:10;;;;;;;6.47;5.50;;;;;;;;;;10240250;28;20439;-85
2023/09/02 08:18:14;;;;;;;7.45;6.50;;;;;;;;;;10242364;28;20483;-85
2023/09/02 08:23:16;;;;;;;7.40;5.07;;;;;;;;;;10245863;28;20538;-89
2023/09/02 08:28:19;;;;;;;8.57;6.20;;;;;;;;;;10243015;28;20529;-84
2023/09/02 08:33:22;;;;;;;6.95;4.90;;;;;;;;;;10245236;28;20447;-84
2023/09/02 08:38:25;;;;;;;6.93;6.13;;;;;;;;;;10243790;28;20436;-84
2023/09/02 08:43:27;;;;;;;8.20;6.18;;;;;;;;;;10242944;28;20540;-84
2023/09/02 08:48:33;;;;;;;8.93;5.18;;;;;;;;;;10244723;28;20558;-84
2023/09/02 08:53:35;;;;;;;5.85;4.38;;;;;;;;;;10247616;28;20470;-84
2023/09/02 08:58:40;;;;;;;6.05;4.15;;;;;;;;;;10222971;28;20918;-84
2023/09/02 09:03:46;;;;;;;5.37;4.47;;;;;;;;;;10201111;29;20520;-85
2023/09/02 09:08:48;;;;;;;8.13;5.28;;;;;;;;;;10205365;29;20488;-84
2023/09/02 09:13:53;;;;;;;6.60;4.70;;;;;;;;;;10208216;29;20418;-85
2023/09/02 09:18:57;;;;;;;6.70;4.63;;;;;;;;;;10199041;29;20846;-84
2023/09/02 09:23:59;;;;;;;7.57;4.60;;;;;;;;;;10205547;29;21009;-85
2023/09/02 09:29:02;;;;;;;6.13;4.33;;;;;;;;;;10206390;29;20457;-84
2023/09/02 09:34:06;;;;;;;7.17;4.43;;;;;;;;;;10206026;29;20430;-84
2023/09/02 09:39:09;;;;;;;20.85;8.65;;;;;;;;;;10206938;29;20482;-85
2023/09/02 09:44:13;;;;;;;40.43;15.57;;;;;;;;;;10207640;29;20469;-84
2023/09/02 09:49:23;;;;;;;11.80;5.90;;;;;;;;;;10205094;29;20478;-84
2023/09/02 09:54:36;;;;;;;8.37;5.07;;;;;;;;;;10206872;29;20450;-84
2023/09/02 09:59:38;;;;;;;5.30;3.53;;;;;;;;;;10233977;28;20475;-84
2023/09/02 10:04:50;;;;;;;6.53;3.70;;;;;;;;;;10237465;28;20468;-84
2023/09/02 10:09:55;;;;;;;4.25;3.30;;;;;;;;;;10242626;28;20484;-85
2023/09/02 10:14:58;;;;;;;5.43;3.33;;;;;;;;;;10242553;28;20491;-84
2023/09/02 10:20:02;;;;;;;3.85;3.08;;;;;;;;;;10244590;28;20448;-85
2023/09/02 10:25:15;;;;;;;4.87;3.37;;;;;;;;;;10244618;28;20527;-85
2023/09/02 10:30:26;;;;;;;6.35;4.25;;;;;;;;;;10238302;28;20512;-85
2023/09/02 10:35:32;;;;;;;5.00;3.70;;;;;;;;;;10243120;28;20412;-85
2023/09/02 10:40:40;;;;;;;6.60;4.30;;;;;;;;;;10242121;28;20473;-85
2023/09/02 10:45:44;;;;;;;5.85;3.30;;;;;;;;;;10233870;28;21011;-82
2023/09/02 10:50:48;;;;;;;5.97;4.07;;;;;;;;;;10240683;28;21170;-83
2023/09/02 10:55:59;;;;;;;5.43;3.67;;;;;;;;;;10238014;28;20506;-83
2023/09/02 11:01:03;;;;;;;5.45;3.67;;;;;;;;;;10237954;28;20590;-84
2023/09/02 11:06:09;;;;;;;7.40;3.70;;;;;;;;;;10238103;28;20940;-84
2023/09/02 11:11:12;;;;;;;4.15;3.28;;;;;;;;;;10240360;28;20440;-84
2023/09/02 11:16:15;;;;;;;4.18;3.40;;;;;;;;;;10240546;28;20443;-84
2023/09/02 11:21:41;;;;;;;4.40;3.43;;;;;;;;;;10235654;28;20459;-84
2023/09/02 11:26:53;;;;;;;5.55;3.60;;;;;;;;;;10233784;28;20448;-84
2023/09/02 11:31:57;;;;;;;5.83;3.80;;;;;;;;;;10229938;28;20459;-83
2023/09/02 11:37:01;;;;;;;5.95;3.40;;;;;;;;;;10228973;28;20499;-83
2023/09/02 11:42:07;;;;;;;3.72;2.90;;;;;;;;;;10229455;28;20483;-84
2023/09/02 11:47:14;;;;;;;5.65;3.40;;;;;;;;;;10229065;28;20440;-83
2023/09/02 11:52:21;;;;;;;4.23;2.90;;;;;;;;;;10238125;28;20467;-84
2023/09/02 11:57:24;;;;;;;5.63;3.20;;;;;;;;;;10234469;28;20510;-84
2023/09/02 12:02:26;;;;;;;4.28;2.97;;;;;;;;;;10233213;28;20460;-84
2023/09/02 12:07:32;;;;;;;5.70;3.10;;;;;;;;;;10230793;28;20515;-84
2023/09/02 12:12:35;;;;;;;4.05;2.95;;;;;;;;;;10241153;28;21879;-86
2023/09/02 12:17:39;;;;;;;5.27;4.00;;;;;;;;;;10241874;28;20480;-92
2023/09/02 12:22:44;;;;;;;4.70;2.80;;;;;;;;;;10244734;28;20928;-80
2023/09/02 12:27:47;;;;;;;4.40;2.80;;;;;;;;;;10226177;28;20506;-78
2023/09/02 12:32:49;;;;;;;3.88;2.78;;;;;;;;;;10232154;28;20524;-87
2023/09/02 12:38:02;;;;;;;4.32;2.67;;;;;;;;;;10230877;28;20506;-85
2023/09/02 12:43:05;;;;;;;4.78;2.60;;;;;;;;;;10249048;28;20499;-95
2023/09/02 12:48:08;;;;;;;6.88;3.63;;;;;;;;;;10934343;23;20419;-96
2023/09/02 13:09:25;;;;;;;5.30;2.97;;;;;;;;;;10788089;23;20445;-92
2023/09/02 13:14:28;;;;;;;29.98;13.23;;;;;;;;;;10247021;28;20501;-93
2023/09/02 13:19:30;;;;;;;4.43;3.00;;;;;;;;;;10238705;28;20450;-92
2023/09/02 13:24:37;;;;;;;5.18;2.85;;;;;;;;;;10257134;28;20415;-96
2023/09/02 13:29:39;;;;;;;3.80;2.50;;;;;;;;;;10250072;29;20404;-92
2023/09/02 13:34:42;;;;;;;3.63;2.42;;;;;;;;;;10239285;29;20461;-79
2023/09/02 13:39:46;;;;;;;3.55;2.60;;;;;;;;;;10230692;29;21075;-94
2023/09/02 13:44:49;;;;;;;3.87;2.40;;;;;;;;;;10231810;29;20474;-95
2023/09/02 13:49:55;;;;;;;3.38;2.65;;;;;;;;;;10230057;29;20992;-91
2023/09/02 13:54:59;;;;;;;4.93;2.88;;;;;;;;;;10228016;29;20428;-92
2023/09/02 14:00:07;;;;;;;3.63;2.70;;;;;;;;;;10255214;28;20794;-94
2023/09/02 14:05:14;;;;;;;2.83;2.30;;;;;;;;;;10271693;28;20457;-93
2023/09/02 14:10:19;;;;;;;6.87;2.40;;;;;;;;;;10302437;28;20404;-94
2023/09/02 14:15:22;;;;;;;3.57;2.43;;;;;;;;;;10310276;28;20465;-94
2023/09/02 14:20:24;;;;;;;3.90;2.60;;;;;;;;;;10314966;28;20416;-94
2023/09/02 14:25:28;;;;;;;3.17;2.35;;;;;;;;;;10305215;28;20434;-94
2023/09/02 14:30:31;;;;;;;4.57;2.58;;;;;;;;;;10308492;28;20477;-95
2023/09/02 14:35:34;;;;;;;3.13;2.37;;;;;;;;;;10305061;28;20410;-95
2023/09/02 14:40:37;;;;;;;4.50;2.40;;;;;;;;;;10307485;28;20416;-94
2023/09/02 14:45:40;;;;;;;2.90;2.25;;;;;;;;;;10327485;28;20458;-95
2023/09/02 14:50:42;;;;;;;2.87;2.43;;;;;;;;;;10313111;28;20893;-96
2023/09/02 14:55:50;;;;;;;3.10;2.47;;;;;;;;;;10315753;28;20402;-96
2023/09/02 15:00:55;;;;;;;3.15;2.30;;;;;;;;;;10309275;28;20422;-95
2023/09/02 15:05:57;;;;;;;25.45;8.52;;;;;;;;;;10302676;28;20477;-94
2023/09/02 15:11:02;;;;;;;7.65;4.03;;;;;;;;;;10324036;28;20454;-96
2023/09/02 16:03:34;;;;;;;3.75;3.45;;;;;;;;;;10301695;28;20973;-88
2023/09/02 16:08:36;;;;;;;4.13;2.58;;;;;;;;;;10293591;28;20438;-81
2023/09/02 16:13:39;;;;;;;3.00;2.50;;;;;;;;;;10300260;28;20472;-81
2023/09/02 16:18:42;;;;;;;2.95;2.65;;;;;;;;;;10298321;28;20904;-81
2023/09/02 16:23:45;;;;;;;5.78;2.60;;;;;;;;;;10297034;28;20527;-79
2023/09/02 16:28:47;;;;;;;4.47;2.80;;;;;;;;;;10298210;28;20507;-80
2023/09/02 16:33:51;;;;;;;3.53;2.40;;;;;;;;;;10303601;28;20925;-85
2023/09/02 16:38:53;;;;;;;4.00;2.35;;;;;;;;;;10309233;28;20457;-82
2023/09/02 16:43:55;;;;;;;3.58;2.13;;;;;;;;;;10305074;28;20505;-83
2023/09/02 16:48:59;;;;;;;3.90;2.40;;;;;;;;;;10308389;28;20479;-83
2023/09/02 16:54:02;;;;;;;3.95;2.50;;;;;;;;;;10307391;28;20445;-83
2023/09/02 16:59:04;;;;;;;4.20;2.50;;;;;;;;;;10348894;28;20603;-83
2023/09/02 17:04:08;;;;;;;3.20;2.45;;;;;;;;;;10354092;28;21189;-84
2023/09/02 17:09:11;;;;;;;5.45;3.05;;;;;;;;;;10338621;28;20920;-83
2023/09/02 17:14:14;;;;;;;3.47;2.40;;;;;;;;;;10346826;28;20454;-89
2023/09/02 17:19:19;;;;;;;4.45;2.25;;;;;;;;;;10353866;28;20442;-83
2023/09/02 17:24:21;;;;;;;4.60;2.20;;;;;;;;;;10344811;28;20517;-87
2023/09/02 17:29:24;;;;;;;3.37;2.60;;;;;;;;;;10337624;28;20446;-81
2023/09/02 17:34:28;;;;;;;3.33;2.50;;;;;;;;;;10340424;28;20887;-80
2023/09/02 17:39:30;;;;;;;3.90;2.40;;;;;;;;;;10343618;28;20509;-80
2023/09/02 17:44:32;;;;;;;4.05;2.58;;;;;;;;;;10346412;28;20845;-80
2023/09/02 17:49:36;;;;;;;5.53;3.13;;;;;;;;;;10349382;28;20451;-83
2023/09/02 17:54:38;;;;;;;5.32;2.97;;;;;;;;;;10338890;28;20561;-82
2023/09/02 17:59:40;;;;;;;3.30;2.80;;;;;;;;;;10338232;28;20475;-83
2023/09/02 18:04:44;;;;;;;5.32;3.05;;;;;;;;;;10330063;28;20460;-82
2023/09/02 18:09:46;;;;;;;4.30;2.93;;;;;;;;;;10335087;28;20511;-83
2023/09/02 18:14:49;;;;;;;5.03;3.40;;;;;;;;;;10340412;28;20519;-82
2023/09/02 18:19:53;;;;;;;4.53;3.20;;;;;;;;;;10354574;28;20438;-81
2023/09/02 18:24:55;;;;;;;4.73;2.93;;;;;;;;;;10343001;28;20529;-82
2023/09/02 18:29:57;;;;;;;5.05;2.80;;;;;;;;;;10340199;28;20428;-79
2023/09/02 18:35:01;;;;;;;3.78;2.65;;;;;;;;;;10333846;28;20458;-81
2023/09/02 18:40:04;;;;;;;4.80;2.93;;;;;;;;;;10329768;28;20519;-82
2023/09/02 18:45:08;;;;;;;4.93;3.10;;;;;;;;;;10332546;28;20537;-83
2023/09/02 18:50:12;;;;;;;3.77;2.90;;;;;;;;;;10331327;28;20464;-80
2023/09/02 18:55:14;;;;;;;4.90;3.30;;;;;;;;;;10346192;28;20464;-81
2023/09/02 19:00:16;;;;;;;3.55;3.17;;;;;;;;;;10332858;28;20450;-81
2023/09/02 19:05:20;;;;;;;5.67;3.90;;;;;;;;;;10337781;28;20455;-82
2023/09/02 19:10:23;;;;;;;5.70;3.55;;;;;;;;;;10337512;28;20446;-82
2023/09/02 19:15:25;;;;;;;5.63;4.10;;;;;;;;;;10340171;28;21000;-82
2023/09/02 19:20:29;;;;;;;6.90;5.37;;;;;;;;;;10339786;28;20914;-83
2023/09/02 19:25:31;;;;;;;10.10;5.88;;;;;;;;;;10335838;28;20460;-82
2023/09/02 19:30:34;;;;;;;8.30;5.37;;;;;;;;;;10332329;28;20501;-81
2023/09/02 19:35:37;;;;;;;7.97;5.80;;;;;;;;;;10333380;28;20959;-82
2023/09/02 19:40:40;;;;;;;9.30;5.53;;;;;;;;;;10333296;28;20505;-82
2023/09/02 19:45:43;;;;;;;6.28;5.18;;;;;;;;;;10338947;28;20960;-82
2023/09/02 19:50:46;;;;;;;7.75;6.00;;;;;;;;;;10343759;28;20862;-83
2023/09/02 19:55:52;;;;;;;8.33;6.13;;;;;;;;;;10343125;28;20493;-82
2023/09/02 20:00:55;;;;;;;7.03;5.60;;;;;;;;;;10338980;28;20496;-83
2023/09/02 20:05:58;;;;;;;9.30;5.90;;;;;;;;;;10348162;28;20491;-83
2023/09/02 20:11:01;;;;;;;6.78;5.68;;;;;;;;;;10355117;28;20880;-83
2023/09/02 20:16:03;;;;;;;8.65;5.72;;;;;;;;;;10353955;28;20508;-84
2023/09/02 20:21:07;;;;;;;8.18;5.40;;;;;;;;;;10350871;28;20481;-83
2023/09/02 20:26:11;;;;;;;7.10;5.50;;;;;;;;;;10345024;28;20552;-83
2023/09/02 20:31:15;;;;;;;7.85;5.53;;;;;;;;;;10357174;28;20898;-84
2023/09/02 20:36:20;;;;;;;8.45;5.70;;;;;;;;;;10348851;28;20907;-84
2023/09/02 20:41:22;;;;;;;8.68;6.35;;;;;;;;;;10341412;28;20450;-82
2023/09/02 20:46:24;;;;;;;7.43;5.82;;;;;;;;;;10348956;28;20460;-83
2023/09/02 20:51:28;;;;;;;7.33;5.70;;;;;;;;;;10345026;28;20435;-84
2023/09/02 20:56:32;;;;;;;9.57;6.70;;;;;;;;;;10348685;28;20463;-83
2023/09/02 21:01:34;;;;;;;8.68;5.80;;;;;;;;;;10342307;28;20440;-83
2023/09/02 21:06:38;;;;;;;8.68;6.25;;;;;;;;;;10337582;28;20556;-84
2023/09/02 21:11:40;;;;;;;9.60;6.05;;;;;;;;;;10341239;28;20755;-82
2023/09/02 21:16:43;;;;;;;9.27;6.13;;;;;;;;;;10352758;28;20483;-82
2023/09/02 21:21:46;;;;;;;11.50;7.40;;;;;;;;;;10339161;28;20483;-83
2023/09/02 21:26:49;;;;;;;6.70;6.00;;;;;;;;;;10351706;28;20518;-83
2023/09/02 21:31:51;;;;;;;6.93;6.17;;;;;;;;;;10344510;28;20453;-82
2023/09/02 21:36:55;;;;;;;7.53;6.20;;;;;;;;;;10339169;28;20521;-83
2023/09/02 21:41:57;;;;;;;7.85;6.38;;;;;;;;;;10340918;28;20462;-84
2023/09/02 21:46:59;;;;;;;6.93;5.63;;;;;;;;;;10342671;28;20468;-83
2023/09/02 21:52:03;;;;;;;8.23;6.05;;;;;;;;;;10339844;28;20435;-83
2023/09/02 21:57:06;;;;;;;8.80;6.20;;;;;;;;;;10336693;28;20471;-83
2023/09/02 22:02:08;;;;;;;11.85;7.25;;;;;;;;;;10343278;28;20448;-83
2023/09/02 22:07:11;;;;;;;9.38;6.93;;;;;;;;;;10334834;28;20526;-83
2023/09/02 22:12:14;;;;;;;13.88;8.70;;;;;;;;;;10340332;28;20977;-84
2023/09/02 22:17:16;;;;;;;10.35;8.40;;;;;;;;;;10349685;28;20450;-83
2023/09/02 22:22:20;;;;;;;15.30;12.80;;;;;;;;;;10341534;28;20489;-84
2023/09/02 22:27:22;;;;;;;18.88;15.18;;;;;;;;;;10346937;28;20493;-84
2023/09/02 22:32:25;;;;;;;20.10;14.80;;;;;;;;;;10343879;28;20411;-83
2023/09/02 22:37:28;;;;;;;16.10;13.80;;;;;;;;;;10351844;28;20412;-83
2023/09/02 22:42:31;;;;;;;18.20;14.52;;;;;;;;;;10348144;28;20832;-83
2023/09/02 22:47:33;;;;;;;18.85;14.90;;;;;;;;;;10350502;28;20490;-83
2023/09/02 22:52:37;;;;;;;17.47;14.20;;;;;;;;;;10343410;28;20904;-83
2023/09/02 22:57:39;;;;;;;18.08;14.30;;;;;;;;;;10341772;23;20833;-83
2023/09/02 23:02:41;;;;;;;18.13;14.50;;;;;;;;;;10329200;28;20451;-82
2023/09/02 23:07:45;;;;;;;18.33;15.02;;;;;;;;;;10330269;28;20517;-83
2023/09/02 23:12:47;;;;;;;20.20;14.87;;;;;;;;;;10334298;28;20424;-83
2023/09/02 23:17:52;;;;;;;19.38;14.80;;;;;;;;;;10333847;28;20480;-83
2023/09/02 23:22:56;;;;;;;16.70;14.90;;;;;;;;;;10336929;28;20473;-83
2023/09/02 23:27:58;;;;;;;19.00;14.93;;;;;;;;;;10335362;28;20464;-83
2023/09/02 23:33:00;;;;;;;17.33;14.60;;;;;;;;;;10337265;28;21171;-83
2023/09/02 23:38:04;;;;;;;19.83;14.85;;;;;;;;;;10338904;28;20491;-83
2023/09/02 23:43:07;;;;;;;19.95;15.80;;;;;;;;;;10336806;28;20444;-83
2023/09/02 23:48:09;;;;;;;19.63;15.27;;;;;;;;;;10337661;28;20480;-83
2023/09/02 23:53:12;;;;;;;19.33;14.77;;;;;;;;;;10337152;28;20466;-82
2023/09/02 23:58:15;;;;;;;19.27;15.50;;;;;;;;;;10340414;28;20914;-83
